Time;durP1;ratioP1;P1;durP2;ratioP2;P2;SDS_P1;SDS_P2;PMS_P1;PMS_P2;Temp;Humidity;BMP_temperature;BMP_pressure;BME280_temperature;BME280_humidity;BME280_pressure;Samples;Min_cycle;Max_cycle;Signal;HPM_P1;HPM_P2
2022/11/30 00:01:18;;;;;;;38.53;17.12;;;;;;;3.84;80.83;102298.02;1761292;81;25513;-61
2022/11/30 00:03:46;;;;;;;28.87;15.32;;;;;;;3.85;80.83;102294.87;1760400;81;25711;-61
2022/11/30 00:06:21;;;;;;;28.40;13.72;;;;;;;3.79;80.95;102297.29;1761145;81;25880;-61
2022/11/30 00:08:44;;;;;;;29.72;14.87;;;;;;;3.73;81.09;102298.37;1764374;80;25791;-62
2022/11/30 00:11:21;;;;;;;28.10;14.18;;;;;;;3.71;81.08;102300.25;1767271;81;27534;-61
2022/11/30 00:13:44;;;;;;;27.00;14.95;;;;;;;3.72;81.24;102302.43;1765490;81;25781;-62
2022/11/30 00:16:11;;;;;;;28.57;14.05;;;;;;;3.72;81.28;102300.63;1766823;81;26554;-61
2022/11/30 00:18:38;;;;;;;25.97;14.80;;;;;;;3.74;81.38;102302.78;1767020;81;26634;-62
2022/11/30 00:21:08;;;;;;;33.48;16.42;;;;;;;3.76;81.42;102302.75;1765925;80;25790;-61
2022/11/30 00:23:38;;;;;;;28.77;15.32;;;;;;;3.73;81.32;102301.03;1729769;81;28450;-61
2022/11/30 00:26:09;;;;;;;27.75;14.65;;;;;;;3.68;81.26;102304.33;1761185;81;25768;-62
2022/11/30 00:28:37;;;;;;;28.02;15.40;;;;;;;3.72;81.35;102305.09;1761175;81;25832;-61
2022/11/30 00:31:07;;;;;;;28.42;14.25;;;;;;;3.76;81.71;102307.59;1771253;79;25691;-61
2022/11/30 00:33:37;;;;;;;30.02;14.30;;;;;;;3.84;82.08;102304.67;1775307;80;25767;-61
2022/11/30 00:36:08;;;;;;;30.95;15.08;;;;;;;3.88;81.51;102310.28;1775252;80;27413;-61
2022/11/30 00:38:35;;;;;;;27.58;12.95;;;;;;;3.89;81.53;102309.83;1775039;80;25952;-62
2022/11/30 00:41:02;;;;;;;31.42;14.68;;;;;;;3.93;81.43;102314.11;1752680;80;25761;-61
2022/11/30 00:43:30;;;;;;;31.52;14.07;;;;;;;3.87;80.96;102305.88;1744845;80;25773;-62
2022/11/30 00:45:57;;;;;;;28.77;13.93;;;;;;;3.84;81.08;102313.10;1767257;81;25980;-62
2022/11/30 00:48:25;;;;;;;32.10;15.43;;;;;;;3.86;81.31;102301.94;1767268;81;27023;-60
2022/11/30 00:50:52;;;;;;;34.10;15.05;;;;;;;3.88;81.20;102306.28;1766952;81;25801;-61
2022/11/30 00:53:20;;;;;;;32.40;15.20;;;;;;;3.93;81.34;102308.78;1766939;80;25670;-61
2022/11/30 00:55:48;;;;;;;34.55;15.85;;;;;;;3.96;81.57;102303.80;1760671;81;25852;-61
2022/11/30 00:58:16;;;;;;;29.70;15.25;;;;;;;3.95;81.23;102301.61;1749654;80;25795;-61
2022/11/30 01:00:43;;;;;;;36.33;15.60;;;;;;;3.93;81.15;102306.12;1730351;81;27573;-61
2022/11/30 01:03:11;;;;;;;31.07;15.40;;;;;;;3.91;81.20;102308.84;1730042;82;25834;-61
2022/11/30 01:05:40;;;;;;;35.58;14.35;;;;;;;3.93;81.23;102307.92;1730105;82;25743;-61
2022/11/30 01:08:09;;;;;;;33.95;15.72;;;;;;;3.93;81.17;102311.92;1730236;82;25851;-61
2022/11/30 01:10:39;;;;;;;31.05;14.70;;;;;;;3.91;81.25;102307.52;1730989;80;25772;-61
2022/11/30 01:13:06;;;;;;;31.87;15.50;;;;;;;3.90;81.04;102298.23;1744748;81;27612;-61
2022/11/30 01:15:40;;;;;;;31.23;16.00;;;;;;;3.90;81.04;102299.12;1744453;82;25808;-61
2022/11/30 01:18:06;;;;;;;29.35;14.18;;;;;;;3.90;81.00;102305.77;1748105;80;25710;-61
2022/11/30 01:20:34;;;;;;;28.87;13.50;;;;;;;3.93;81.05;102295.95;1761863;80;25796;-61
2022/11/30 01:23:00;;;;;;;33.02;14.35;;;;;;;3.98;81.40;102301.95;1781630;80;25803;-61
2022/11/30 01:25:27;;;;;;;33.28;14.75;;;;;;;4.00;81.18;102299.64;1781612;80;27476;-61
2022/11/30 01:27:54;;;;;;;29.02;14.28;;;;;;;4.02;81.18;102293.80;1781400;80;25817;-61
2022/11/30 01:30:20;;;;;;;27.85;13.55;;;;;;;4.01;80.53;102297.39;1781627;80;25750;-61
2022/11/30 01:32:47;;;;;;;30.40;14.95;;;;;;;3.96;80.49;102302.47;1781839;80;26028;-61
2022/11/30 01:35:14;;;;;;;28.38;14.25;;;;;;;3.91;80.50;102298.20;1781837;80;25850;-61
2022/11/30 01:37:41;;;;;;;26.87;13.62;;;;;;;3.93;80.77;102307.92;1781548;80;29634;-61
2022/11/30 01:40:09;;;;;;;31.20;14.40;;;;;;;3.93;80.57;102303.45;1781893;80;25477;-61
2022/11/30 01:42:36;;;;;;;25.50;14.98;;;;;;;3.92;80.45;102299.05;1779398;80;25734;-61
2022/11/30 01:45:06;;;;;;;30.30;14.78;;;;;;;3.90;80.49;102297.78;1779111;80;25964;-61
2022/11/30 01:47:44;;;;;;;26.48;13.15;;;;;;;3.93;80.62;102300.80;1779138;80;25790;-61
2022/11/30 01:50:23;;;;;;;29.02;14.23;;;;;;;3.94;80.49;102290.55;1779085;80;27459;-61
2022/11/30 01:52:54;;;;;;;29.20;13.35;;;;;;;3.93;80.34;102291.47;1779708;80;25789;-61
2022/11/30 01:55:32;;;;;;;27.93;13.98;;;;;;;3.88;80.03;102295.63;1756529;81;25699;-61
2022/11/30 01:58:06;;;;;;;27.95;13.30;;;;;;;3.85;80.00;102301.09;1764755;80;25789;-61
2022/11/30 02:00:33;;;;;;;28.47;14.83;;;;;;;3.90;80.32;102300.89;1787984;80;26085;-61
2022/11/30 02:03:24;;;;;;;29.00;14.43;;;;;;;3.89;80.32;102297.38;1787319;80;27384;-61
2022/11/30 02:05:51;;;;;;;27.02;13.62;;;;;;;3.91;80.13;102293.31;1780272;80;25861;-61
2022/11/30 02:08:19;;;;;;;24.70;13.18;;;;;;;3.91;79.90;102294.64;1779123;80;25793;-61
2022/11/30 02:10:51;;;;;;;26.77;13.53;;;;;;;3.89;79.79;102303.17;1779263;80;25935;-61
2022/11/30 02:13:35;;;;;;;24.82;13.25;;;;;;;3.83;79.75;102296.27;1779396;80;26022;-61
2022/11/30 02:16:16;;;;;;;23.65;12.43;;;;;;;3.84;79.75;102301.13;1779491;80;27639;-61
2022/11/30 02:19:15;;;;;;;24.98;13.13;;;;;;;3.85;79.96;102302.86;1778385;80;26569;-61
2022/11/30 02:21:52;;;;;;;28.25;14.40;;;;;;;3.84;79.65;102306.00;1779157;80;25546;-61
2022/11/30 02:24:52;;;;;;;24.60;12.20;;;;;;;3.84;79.50;102301.13;1779246;80;25857;-61
2022/11/30 02:27:46;;;;;;;29.85;14.13;;;;;;;3.82;79.42;102297.20;1779180;80;25699;-61
2022/11/30 02:30:16;;;;;;;24.75;12.85;;;;;;;3.77;78.96;102301.80;1770625;80;28284;-61
2022/11/30 02:32:51;;;;;;;23.22;12.07;;;;;;;3.68;78.74;102300.34;1753209;80;25815;-61
2022/11/30 02:35:23;;;;;;;19.52;11.90;;;;;;;3.60;78.77;102304.59;1772059;80;25794;-61
2022/11/30 02:37:53;;;;;;;23.00;12.33;;;;;;;3.53;78.85;102304.87;1777165;80;25742;-62
2022/11/30 02:40:21;;;;;;;22.98;11.83;;;;;;;3.50;78.98;102300.50;1787942;80;25904;-61
2022/11/30 02:42:52;;;;;;;21.30;11.83;;;;;;;3.41;78.72;102292.39;1787603;80;27461;-61
2022/11/30 02:45:35;;;;;;;21.15;11.80;;;;;;;3.39;78.91;102290.23;1787687;80;26041;-63
2022/11/30 02:48:11;;;;;;;19.62;10.25;;;;;;;3.35;78.89;102293.05;1787297;80;25753;-61
2022/11/30 02:50:48;;;;;;;21.10;11.78;;;;;;;3.30;79.02;102294.53;1787653;80;26434;-62
2022/11/30 02:53:15;;;;;;;18.48;10.18;;;;;;;3.29;79.09;102296.78;1787106;80;26591;-61
2022/11/30 02:55:42;;;;;;;18.95;9.98;;;;;;;3.30;79.31;102295.87;1786896;80;28360;-61
2022/11/30 02:58:11;;;;;;;21.55;11.25;;;;;;;3.35;79.60;102302.36;1787185;80;25815;-60
2022/11/30 03:00:38;;;;;;;18.40;9.98;;;;;;;3.38;79.72;102295.14;1787713;80;25820;-61
2022/11/30 03:03:05;;;;;;;16.37;9.65;;;;;;;3.39;79.49;102292.05;1787019;80;25737;-61
2022/11/30 03:05:32;;;;;;;16.87;9.15;;;;;;;3.38;79.14;102295.14;1787569;80;25706;-62
2022/11/30 03:07:58;;;;;;;15.55;8.68;;;;;;;3.35;78.87;102296.60;1787278;80;27522;-61
2022/11/30 03:10:25;;;;;;;16.62;9.98;;;;;;;3.31;78.93;102304.73;1787477;80;25790;-61
2022/11/30 03:12:52;;;;;;;18.10;9.25;;;;;;;3.31;79.23;102300.27;1787388;80;25735;-62
2022/11/30 03:15:19;;;;;;;17.23;10.28;;;;;;;3.37;79.55;102304.05;1787572;80;26467;-62
2022/11/30 03:17:45;;;;;;;17.15;10.00;;;;;;;3.39;79.55;102294.23;1787478;80;25717;-61
2022/11/30 03:20:12;;;;;;;17.57;9.43;;;;;;;3.42;79.29;102299.90;1787490;80;27861;-62
2022/11/30 03:22:39;;;;;;;19.45;9.50;;;;;;;3.40;79.38;102305.28;1783537;80;26104;-62
2022/11/30 03:25:07;;;;;;;15.18;8.50;;;;;;;3.35;78.86;102299.26;1775160;80;25750;-61
2022/11/30 03:27:34;;;;;;;13.40;8.55;;;;;;;3.28;78.88;102303.02;1768030;80;26444;-61
2022/11/30 03:30:01;;;;;;;12.05;7.28;;;;;;;3.27;79.22;102298.65;1767314;81;25783;-61
2022/11/30 03:32:29;;;;;;;15.63;7.92;;;;;;;3.27;79.23;102300.83;1767535;81;28563;-61
2022/11/30 03:34:56;;;;;;;17.30;7.78;;;;;;;3.28;79.30;102297.26;1767164;81;25906;-61
2022/11/30 03:37:23;;;;;;;13.58;7.60;;;;;;;3.31;79.25;102305.59;1737286;81;25876;-61
2022/11/30 03:39:50;;;;;;;16.00;7.83;;;;;;;3.28;79.14;102305.23;1767251;81;27938;-62
2022/11/30 03:42:17;;;;;;;11.97;7.67;;;;;;;3.30;78.87;102306.51;1767252;81;27351;-61
2022/11/30 03:44:44;;;;;;;13.78;8.13;;;;;;;3.24;78.69;102311.56;1767790;80;27495;-62
2022/11/30 03:47:10;;;;;;;16.50;8.08;;;;;;;3.25;79.01;102317.77;1770542;81;26123;-61
2022/11/30 03:49:38;;;;;;;13.93;7.53;;;;;;;3.24;79.07;102311.56;1770281;81;25782;-62
2022/11/30 03:52:06;;;;;;;14.50;8.58;;;;;;;3.26;79.12;102315.05;1741917;81;44823;-62
2022/11/30 03:54:33;;;;;;;14.00;7.12;;;;;;;3.29;79.36;102321.61;1766367;80;25823;-62
2022/11/30 03:57:00;;;;;;;16.52;8.90;;;;;;;3.35;79.20;102313.00;1748477;82;26719;-62
2022/11/30 03:59:28;;;;;;;12.82;8.03;;;;;;;3.36;79.23;102312.94;1756159;80;25821;-62
2022/11/30 04:01:54;;;;;;;14.70;7.55;;;;;;;3.41;79.08;102318.11;1770114;80;25667;-62
2022/11/30 04:04:22;;;;;;;12.90;8.05;;;;;;;3.39;78.99;102311.52;1767236;81;25897;-62
2022/11/30 04:06:48;;;;;;;12.68;7.30;;;;;;;3.40;78.96;102322.57;1767449;79;25758;-61
2022/11/30 04:09:17;;;;;;;15.45;8.88;;;;;;;3.41;78.39;102317.66;1767632;80;27534;-62
2022/11/30 04:11:44;;;;;;;15.43;7.83;;;;;;;3.39;78.56;102319.98;1770215;81;25898;-61
2022/11/30 04:14:11;;;;;;;12.70;8.40;;;;;;;3.37;78.15;102315.16;1770413;81;25724;-61
2022/11/30 04:16:38;;;;;;;11.10;7.35;;;;;;;3.32;77.76;102317.97;1768509;80;25751;-61
2022/11/30 04:19:04;;;;;;;13.15;8.15;;;;;;;3.21;77.70;102321.44;1767464;81;25456;-61
2022/11/30 04:21:31;;;;;;;12.20;7.80;;;;;;;3.15;77.88;102320.31;1767581;81;28175;-62
2022/11/30 04:23:58;;;;;;;11.03;7.60;;;;;;;3.13;78.17;102324.37;1781429;80;25717;-61
2022/11/30 04:26:24;;;;;;;13.65;7.62;;;;;;;3.11;78.23;102321.73;1781909;80;25659;-62
2022/11/30 04:28:51;;;;;;;11.00;7.30;;;;;;;3.11;78.48;102324.39;1781620;80;26574;-62
2022/11/30 04:31:18;;;;;;;11.63;7.37;;;;;;;3.15;78.55;102328.30;1781993;80;25700;-62
2022/11/30 04:33:45;;;;;;;8.98;7.12;;;;;;;3.11;78.32;102334.17;1781343;80;27637;-62
2022/11/30 04:36:18;;;;;;;10.85;7.00;;;;;;;3.07;78.51;102340.05;1780922;80;25790;-62
2022/11/30 04:38:49;;;;;;;11.15;7.33;;;;;;;3.11;78.84;102335.03;1781462;80;25873;-62
2022/11/30 04:41:15;;;;;;;15.68;7.70;;;;;;;3.08;78.60;102339.14;1781512;80;26688;-62
2022/11/30 04:43:45;;;;;;;12.40;7.90;;;;;;;3.10;78.82;102334.62;1781843;80;25691;-62
2022/11/30 04:46:11;;;;;;;10.23;7.12;;;;;;;3.17;79.03;102345.94;1781342;80;27533;-62
2022/11/30 04:48:38;;;;;;;14.05;7.42;;;;;;;3.20;78.61;102341.86;1782947;80;25948;-62
2022/11/30 04:51:07;;;;;;;10.70;6.92;;;;;;;3.17;78.61;102347.73;1785025;80;25777;-62
2022/11/30 04:53:36;;;;;;;9.65;6.50;;;;;;;3.22;79.00;102350.66;1785494;80;25824;-62
2022/11/30 04:56:09;;;;;;;10.05;6.85;;;;;;;3.28;79.18;102343.80;1785251;80;25771;-62
2022/11/30 04:58:40;;;;;;;15.70;8.88;;;;;;;3.25;78.13;102348.36;1785214;80;27573;-62
2022/11/30 05:01:07;;;;;;;11.95;7.05;;;;;;;3.22;78.30;102346.67;1784987;80;25797;-62
2022/11/30 05:03:35;;;;;;;12.55;7.75;;;;;;;3.23;78.08;102351.52;1785201;80;26344;-62
2022/11/30 05:06:03;;;;;;;11.38;7.50;;;;;;;3.20;77.75;102346.29;1779071;80;25631;-62
2022/11/30 05:08:30;;;;;;;10.00;6.80;;;;;;;3.17;78.07;102347.27;1779752;80;25746;-62
2022/11/30 05:10:57;;;;;;;11.33;6.53;;;;;;;3.18;78.29;102347.68;1778901;80;28302;-62
2022/11/30 05:13:26;;;;;;;10.98;7.72;;;;;;;3.15;77.73;102345.58;1779102;80;25802;-62
2022/11/30 05:15:53;;;;;;;9.00;5.65;;;;;;;3.05;77.75;102345.02;1778896;80;25753;-62
2022/11/30 05:18:22;;;;;;;11.95;6.47;;;;;;;3.00;78.03;102341.62;1777567;80;25484;-62
2022/11/30 05:20:50;;;;;;;9.20;6.05;;;;;;;2.95;78.05;102343.98;1779191;80;25906;-62
2022/11/30 05:23:17;;;;;;;11.12;6.22;;;;;;;2.96;78.37;102329.73;1772137;80;28262;-62
2022/11/30 05:25:45;;;;;;;13.28;6.58;;;;;;;2.94;78.19;102336.03;1766463;80;25754;-62
2022/11/30 05:28:13;;;;;;;8.60;6.30;;;;;;;2.91;78.39;102335.67;1767021;79;25834;-62
2022/11/30 05:30:42;;;;;;;9.28;6.22;;;;;;;2.94;78.58;102334.70;1767211;81;26774;-62
2022/11/30 05:33:10;;;;;;;10.10;6.08;;;;;;;2.98;78.74;102338.54;1761147;80;25770;-62
2022/11/30 05:35:36;;;;;;;9.30;6.65;;;;;;;3.01;78.72;102342.89;1761575;81;27605;-62
2022/11/30 05:38:06;;;;;;;9.63;6.72;;;;;;;3.07;78.89;102335.18;1761090;81;25731;-62
2022/11/30 05:40:33;;;;;;;8.20;6.25;;;;;;;3.13;79.12;102341.17;1761726;81;25731;-62
2022/11/30 05:43:02;;;;;;;9.58;6.80;;;;;;;3.15;78.55;102349.09;1766486;80;25808;-62
2022/11/30 05:45:29;;;;;;;10.80;6.85;;;;;;;3.18;78.72;102350.34;1767464;79;25771;-62
2022/11/30 05:47:56;;;;;;;10.98;7.03;;;;;;;3.21;78.39;102360.89;1767249;81;28235;-62
2022/11/30 05:50:23;;;;;;;14.25;8.00;;;;;;;3.22;78.47;102359.09;1767214;79;25728;-62
2022/11/30 05:52:56;;;;;;;12.93;8.73;;;;;;;3.24;77.96;102363.91;1766320;81;25742;-62
2022/11/30 05:55:24;;;;;;;13.65;8.75;;;;;;;3.17;77.68;102365.02;1764764;80;27968;-62
2022/11/30 05:57:51;;;;;;;12.18;8.50;;;;;;;3.13;77.63;102368.25;1767422;81;25736;-62
2022/11/30 06:00:21;;;;;;;13.03;8.73;;;;;;;3.07;77.67;102367.97;1767183;81;29666;-62
2022/11/30 06:02:48;;;;;;;13.18;8.85;;;;;;;3.06;77.73;102368.89;1767128;80;25793;-62
2022/11/30 06:05:15;;;;;;;12.50;8.23;;;;;;;3.04;77.79;102372.05;1767465;81;25734;-62
2022/11/30 06:07:42;;;;;;;19.23;8.40;;;;;;;3.00;77.73;102374.84;1767386;81;26698;-62
2022/11/30 06:10:11;;;;;;;12.80;8.68;;;;;;;3.00;77.91;102367.77;1767201;81;25729;-62
2022/11/30 06:12:38;;;;;;;13.80;8.90;;;;;;;2.99;77.92;102366.02;1767437;79;28066;-63
2022/11/30 06:15:07;;;;;;;12.30;8.40;;;;;;;2.95;77.66;102369.67;1766661;80;25694;-62
2022/11/30 06:17:36;;;;;;;14.68;8.78;;;;;;;2.96;77.79;102372.75;1767317;81;25739;-62
2022/11/30 06:20:08;;;;;;;15.00;8.95;;;;;;;2.97;77.84;102369.17;1762194;80;25807;-62
2022/11/30 06:22:35;;;;;;;14.13;8.58;;;;;;;3.00;77.77;102370.42;1764280;80;25779;-61
2022/11/30 06:25:02;;;;;;;14.45;8.55;;;;;;;3.01;77.91;102361.50;1781771;80;28124;-62
2022/11/30 06:27:31;;;;;;;12.45;7.90;;;;;;;3.06;78.15;102360.02;1781742;80;25762;-62
2022/11/30 06:29:58;;;;;;;14.85;8.45;;;;;;;3.06;78.15;102364.02;1781525;80;25746;-62
2022/11/30 06:32:25;;;;;;;12.03;8.05;;;;;;;3.11;78.32;102374.06;1781052;80;25816;-62
2022/11/30 06:34:52;;;;;;;12.33;8.00;;;;;;;3.14;78.49;102375.27;1779385;80;25699;-62
2022/11/30 06:37:19;;;;;;;14.07;9.03;;;;;;;3.20;78.78;102376.44;1779106;80;29710;-60
2022/11/30 06:39:45;;;;;;;10.93;7.62;;;;;;;3.20;78.39;102379.53;1779675;80;25778;-60
2022/11/30 06:42:12;;;;;;;13.30;8.00;;;;;;;3.23;78.48;102380.30;1779103;80;25753;-61
2022/11/30 06:44:39;;;;;;;12.43;7.97;;;;;;;3.28;78.71;102386.37;1779230;80;26441;-61
2022/11/30 06:47:06;;;;;;;12.18;7.78;;;;;;;3.35;78.84;102380.84;1778937;80;25745;-61
2022/11/30 06:49:32;;;;;;;11.05;7.40;;;;;;;3.39;78.40;102383.82;1779651;80;28053;-61
2022/11/30 06:52:00;;;;;;;11.05;7.47;;;;;;;3.38;78.01;102394.91;1778923;80;25800;-62
2022/11/30 06:54:27;;;;;;;14.40;7.30;;;;;;;3.34;77.89;102396.38;1784309;80;25769;-61
2022/11/30 06:56:55;;;;;;;12.55;7.65;;;;;;;3.34;78.04;102399.94;1785143;80;25805;-61
2022/11/30 06:59:24;;;;;;;16.30;9.18;;;;;;;3.34;78.24;102405.69;1784624;80;25648;-61
2022/11/30 07:01:51;;;;;;;12.40;8.48;;;;;;;3.39;78.44;102406.44;1785187;80;27469;-62
2022/11/30 07:04:20;;;;;;;12.23;8.08;;;;;;;3.47;78.65;102415.48;1782168;80;25728;-61
2022/11/30 07:06:48;;;;;;;16.52;8.40;;;;;;;3.54;78.56;102414.39;1779630;80;25670;-61
2022/11/30 07:09:15;;;;;;;12.68;8.03;;;;;;;3.58;78.28;102422.22;1781895;79;25965;-61
2022/11/30 07:11:41;;;;;;;12.00;8.18;;;;;;;3.60;77.65;102418.17;1781515;80;25776;-62
2022/11/30 07:14:08;;;;;;;12.95;8.35;;;;;;;3.60;77.72;102419.02;1781952;80;27610;-62
2022/11/30 07:16:35;;;;;;;18.05;10.18;;;;;;;3.61;77.24;102417.25;1781360;80;25701;-61
2022/11/30 07:19:01;;;;;;;16.62;9.20;;;;;;;3.58;77.35;102422.22;1781733;79;25778;-62
2022/11/30 07:21:28;;;;;;;14.73;9.05;;;;;;;3.60;77.06;102416.84;1781505;80;26799;-62
2022/11/30 07:26:40;;;;;;;14.47;8.55;;;;;;;3.63;77.35;102414.05;1766975;81;27499;-62
2022/11/30 07:29:06;;;;;;;13.72;8.63;;;;;;;3.63;76.51;102419.38;1767371;81;25730;-62
2022/11/30 07:31:33;;;;;;;12.33;7.75;;;;;;;3.57;76.74;102420.48;1767108;81;25723;-62
2022/11/30 07:34:05;;;;;;;14.35;7.42;;;;;;;3.61;76.65;102415.92;1767694;80;25829;-62
2022/11/30 07:36:34;;;;;;;11.33;7.97;;;;;;;3.60;76.51;102416.84;1775395;79;25826;-61
2022/11/30 07:39:01;;;;;;;17.57;8.13;;;;;;;3.60;76.56;102416.84;1775727;80;27266;-61
2022/11/30 07:41:28;;;;;;;11.25;7.50;;;;;;;3.59;76.18;102411.95;1775242;80;25881;-61
2022/11/30 07:43:55;;;;;;;14.53;7.60;;;;;;;3.61;76.46;102409.27;1775211;80;25740;-61
2022/11/30 07:46:22;;;;;;;11.15;7.03;;;;;;;3.65;76.66;102414.03;1775303;80;25843;-61
2022/11/30 07:48:51;;;;;;;10.18;7.05;;;;;;;3.66;76.31;102415.30;1775344;80;26171;-62
2022/11/30 07:51:21;;;;;;;10.85;6.65;;;;;;;3.67;76.30;102414.85;1775388;80;27467;-61
2022/11/30 07:53:49;;;;;;;8.40;6.50;;;;;;;3.69;76.52;102415.20;1769924;80;25838;-62
2022/11/30 07:56:19;;;;;;;12.65;6.75;;;;;;;3.74;76.17;102411.91;1761399;81;25684;-62
2022/11/30 07:58:49;;;;;;;12.63;7.00;;;;;;;3.76;76.33;102407.42;1760935;80;25756;-62
2022/11/30 08:01:20;;;;;;;10.48;7.12;;;;;;;3.83;76.15;102398.77;1761469;81;25759;-61
2022/11/30 08:03:48;;;;;;;13.83;7.90;;;;;;;3.82;75.06;102400.13;1761161;80;27463;-61
2022/11/30 08:06:19;;;;;;;13.70;8.15;;;;;;;3.74;75.39;102401.74;1761173;79;26071;-61
2022/11/30 08:08:49;;;;;;;12.58;8.48;;;;;;;3.66;75.17;102405.98;1761379;81;25747;-61
2022/11/30 08:11:21;;;;;;;13.48;8.20;;;;;;;3.61;75.41;102405.28;1761337;81;25818;-61
2022/11/30 08:13:52;;;;;;;16.77;8.78;;;;;;;3.49;75.70;102401.67;1761667;81;25833;-62
2022/11/30 08:16:21;;;;;;;11.35;8.20;;;;;;;3.41;76.08;102405.45;1761039;81;27496;-61
2022/11/30 08:18:49;;;;;;;14.25;8.20;;;;;;;3.38;76.19;102410.02;1761503;81;25887;-61
2022/11/30 08:21:19;;;;;;;15.15;8.80;;;;;;;3.35;76.61;102414.09;1753085;80;25781;-61
2022/11/30 08:23:50;;;;;;;16.65;9.18;;;;;;;3.33;76.71;102408.83;1743400;80;26527;-61
2022/11/30 08:26:23;;;;;;;16.12;9.75;;;;;;;3.35;76.65;102403.01;1767167;81;25510;-61
2022/11/30 08:28:53;;;;;;;15.98;8.68;;;;;;;3.36;76.72;102398.54;1767390;81;27438;-61
2022/11/30 08:31:27;;;;;;;14.03;8.95;;;;;;;3.39;76.86;102403.30;1766898;81;25893;-61
2022/11/30 08:34:01;;;;;;;14.55;9.20;;;;;;;3.45;76.83;102404.90;1766945;81;25865;-61
2022/11/30 08:36:29;;;;;;;14.98;9.23;;;;;;;3.42;76.72;102404.55;1766706;81;25812;-61
2022/11/30 08:38:58;;;;;;;17.10;9.80;;;;;;;3.46;76.94;102399.99;1767312;79;25789;-60
2022/11/30 08:41:26;;;;;;;14.33;9.30;;;;;;;3.48;77.07;102401.27;1767110;81;28195;-61
2022/11/30 08:43:53;;;;;;;14.78;8.90;;;;;;;3.47;77.12;102399.08;1766789;79;25665;-61
2022/11/30 08:46:23;;;;;;;15.35;9.08;;;;;;;3.42;77.12;102397.89;1767096;81;25743;-61
2022/11/30 08:48:51;;;;;;;14.13;9.50;;;;;;;3.41;77.20;102400.58;1766386;80;26465;-61
2022/11/30 08:51:20;;;;;;;16.67;9.90;;;;;;;3.45;77.69;102413.73;1756983;80;25889;-62
2022/11/30 08:53:48;;;;;;;17.77;9.38;;;;;;;3.51;77.75;102410.02;1768329;79;27426;-62
2022/11/30 08:56:22;;;;;;;17.05;8.83;;;;;;;3.60;77.66;102408.38;1767501;80;25727;-62
2022/11/30 08:58:49;;;;;;;15.63;9.25;;;;;;;3.64;77.79;102399.83;1766888;81;25771;-63
2022/11/30 09:01:21;;;;;;;17.75;10.38;;;;;;;3.70;77.88;102405.41;1767109;79;26634;-62
2022/11/30 09:03:52;;;;;;;21.23;10.68;;;;;;;3.76;77.86;102410.55;1767214;81;26066;-62
2022/11/30 09:06:26;;;;;;;17.50;10.95;;;;;;;3.80;77.73;102413.50;1767088;81;27318;-62
2022/11/30 09:08:54;;;;;;;;;;;;;;;3.83;77.68;102412.52;1769492;81;25750;-62
2022/11/30 09:11:26;;;;;;;20.27;11.03;;;;;;;3.82;77.57;102407.67;1767157;81;25785;-62
2022/11/30 09:13:56;;;;;;;17.95;11.08;;;;;;;3.84;77.63;102411.16;1764831;80;25811;-62
2022/11/30 09:16:24;;;;;;;21.23;11.00;;;;;;;3.89;77.79;102404.35;1767391;79;26216;-62
2022/11/30 09:18:51;;;;;;;19.02;9.68;;;;;;;3.97;77.77;102404.95;1751946;80;28296;-61
2022/11/30 09:21:21;;;;;;;21.60;9.95;;;;;;;4.04;77.91;102405.14;1766431;80;25778;-61
2022/11/30 09:23:49;;;;;;;18.15;11.15;;;;;;;4.12;77.34;102414.66;1765401;80;25530;-61
2022/11/30 09:26:19;;;;;;;15.48;9.50;;;;;;;4.16;77.54;102413.63;1782022;80;25903;-61
2022/11/30 09:28:48;;;;;;;17.80;9.55;;;;;;;4.22;77.18;102405.41;1781603;80;25652;-62
2022/11/30 09:31:18;;;;;;;13.68;8.48;;;;;;;4.19;76.21;102397.52;1782055;80;27582;-61
2022/11/30 09:33:46;;;;;;;14.98;8.80;;;;;;;4.14;75.70;102391.50;1781407;80;25820;-61
2022/11/30 09:36:17;;;;;;;17.27;7.95;;;;;;;4.08;75.23;102390.78;1781889;80;25811;-61
2022/11/30 09:38:45;;;;;;;13.53;8.80;;;;;;;3.96;75.43;102389.90;1781747;80;25936;-62
2022/11/30 09:41:44;;;;;;;13.03;8.20;;;;;;;3.94;75.39;102389.07;1782011;80;25769;-61
2022/11/30 09:44:41;;;;;;;12.65;7.60;;;;;;;3.90;75.66;102400.30;1780982;80;27926;-62
2022/11/30 09:47:39;;;;;;;16.73;8.03;;;;;;;3.86;75.56;102394.65;1778912;80;25822;-61
2022/11/30 09:50:22;;;;;;;14.30;7.20;;;;;;;3.76;75.52;102394.11;1755976;79;25770;-61
2022/11/30 09:53:03;;;;;;;13.90;7.83;;;;;;;3.72;75.86;102391.59;1759264;80;25805;-62
2022/11/30 09:55:42;;;;;;;14.95;9.78;;;;;;;3.75;76.31;102396.36;1761182;80;25691;-62
2022/11/30 09:58:18;;;;;;;13.80;8.83;;;;;;;3.72;76.01;102391.12;1754741;81;27476;-62
2022/11/30 10:00:44;;;;;;;17.92;9.78;;;;;;;3.66;76.22;102390.02;1752167;81;25549;-61
2022/11/30 10:03:12;;;;;;;14.70;8.23;;;;;;;3.66;76.62;102391.81;1770854;80;25724;-62
2022/11/30 10:05:58;;;;;;;14.07;8.63;;;;;;;3.74;77.09;102393.28;1781544;80;25855;-62
2022/11/30 10:08:36;;;;;;;10.63;7.00;;;;;;;3.85;76.95;102400.03;1781718;80;27388;-62
2022/11/30 10:11:20;;;;;;;15.55;9.33;;;;;;;3.90;75.88;102402.06;1781324;80;27455;-62
2022/11/30 10:14:22;;;;;;;16.50;10.10;;;;;;;3.85;75.84;102398.70;1767953;80;27637;-62
2022/11/30 10:17:16;;;;;;;12.07;6.62;;;;;;;3.86;75.98;102407.11;1769548;81;25729;-61
2022/11/30 10:20:16;;;;;;;14.28;6.15;;;;;;;3.84;75.21;102409.83;1769064;80;25741;-61
2022/11/30 10:23:08;;;;;;;9.65;6.47;;;;;;;3.82;75.48;102414.33;1769374;80;25873;-60
2022/11/30 10:25:58;;;;;;;9.05;5.60;;;;;;;3.81;75.15;102417.05;1774939;79;27476;-60
2022/11/30 10:28:51;;;;;;;14.45;6.37;;;;;;;3.80;74.92;102416.64;1717602;82;25852;-60
2022/11/30 10:31:29;;;;;;;11.05;6.17;;;;;;;3.83;75.51;102420.07;1749572;82;25774;-60
2022/11/30 10:34:04;;;;;;;10.43;6.45;;;;;;;3.90;75.69;102415.38;1733966;82;25753;-61
2022/11/30 10:36:41;;;;;;;12.37;8.10;;;;;;;3.98;76.25;102413.36;1744970;80;25855;-61
2022/11/30 10:39:32;;;;;;;19.67;8.58;;;;;;;4.08;76.22;102402.77;1762965;80;28414;-61
2022/11/30 10:42:16;;;;;;;13.88;7.85;;;;;;;4.13;76.07;102404.41;1782672;80;26575;-61
2022/11/30 10:44:48;;;;;;;14.18;7.53;;;;;;;4.17;75.34;102407.39;1788959;80;26094;-60
2022/11/30 10:47:20;;;;;;;17.45;7.55;;;;;;;4.12;74.93;102392.02;1751733;81;25779;-61
2022/11/30 10:49:52;;;;;;;11.90;7.08;;;;;;;4.12;74.70;102392.02;1768816;81;25877;-60
2022/11/30 10:52:24;;;;;;;9.38;6.33;;;;;;;4.10;74.52;102384.09;1765569;80;28128;-60
2022/11/30 10:54:54;;;;;;;13.40;7.53;;;;;;;4.05;74.16;102380.25;1761239;80;27295;-61
2022/11/30 10:57:25;;;;;;;12.88;7.45;;;;;;;3.98;74.48;102385.39;1763231;80;25505;-61
2022/11/30 10:59:55;;;;;;;10.70;7.67;;;;;;;3.98;74.43;102384.06;1741065;80;25780;-61
2022/11/30 11:02:47;;;;;;;10.18;7.50;;;;;;;3.93;74.27;102380.67;1775646;80;25826;-61
2022/11/30 11:05:27;;;;;;;10.88;7.35;;;;;;;3.88;74.44;102381.30;1775764;80;26904;-60
2022/11/30 11:08:01;;;;;;;16.55;9.80;;;;;;;3.86;74.65;102386.66;1775454;80;25806;-60
2022/11/30 11:10:45;;;;;;;14.55;9.18;;;;;;;3.82;74.75;102382.83;1775529;79;25890;-61
2022/11/30 11:13:19;;;;;;;17.82;9.58;;;;;;;3.82;74.65;102368.19;1780295;79;26918;-60
2022/11/30 11:15:59;;;;;;;15.45;8.45;;;;;;;3.77;74.64;102364.35;1784122;78;25797;-61
2022/11/30 11:18:31;;;;;;;15.13;8.23;;;;;;;3.77;74.92;102359.02;1792742;80;28144;-60
2022/11/30 11:21:19;;;;;;;10.58;7.37;;;;;;;3.82;75.23;102363.75;1788798;78;26050;-60
2022/11/30 11:23:49;;;;;;;12.58;7.15;;;;;;;3.87;75.26;102370.24;1786583;80;25702;-60
2022/11/30 11:26:25;;;;;;;10.98;7.00;;;;;;;3.89;75.48;102365.75;1792101;80;25907;-61
2022/11/30 11:28:54;;;;;;;13.40;6.92;;;;;;;3.93;75.57;102363.84;1785069;80;25711;-61
2022/11/30 11:31:45;;;;;;;13.85;6.67;;;;;;;3.93;75.11;102359.37;1790844;78;27533;-60
2022/11/30 11:34:30;;;;;;;9.70;7.08;;;;;;;3.95;75.54;102369.52;1789513;78;27412;-60
2022/11/30 11:37:25;;;;;;;10.70;6.33;;;;;;;4.01;75.78;102365.30;1784543;80;25698;-62
2022/11/30 11:40:09;;;;;;;11.55;7.50;;;;;;;4.02;74.76;102370.17;1789047;80;26589;-62
2022/11/30 11:42:46;;;;;;;17.92;8.88;;;;;;;3.90;74.65;102380.77;1770430;80;25781;-61
2022/11/30 11:45:21;;;;;;;14.80;8.53;;;;;;;3.86;75.23;102388.47;1778240;79;27405;-62